Pagrindinis puslapis
METAR-TAF:

METAR-TAF

Oro uostai :

Hujė, Vietnamas

platuma: 16-24N, ilguma: 107-41E, Aukštis: 17 m

Dabartinis oras

Ataskaita buvo paskelbta 24 minutes, ne 19:00 UTC
Vėjas 2 kt iš Pietų/Pietvakarių
Temperatūra 23°C
Drėgmė 100%
Slėgis 1015 hPa
Matomumas: 6000 m
Išsisklaidę debesys ne aukštis 1500 ft
Išsisklaidę debesys ne aukštis 5000 ft
lietus

METAR: VVPB 251900Z 21002KT 6000 -RA SCT015 SCT050 23/23 Q1015 NOSIG

Laikas: 02:24 (19:24 UTC)

Prognozė

Ataskaita buvo paskelbta 2 valandos ir 24 minutes, ne 17:00 UTC
Prognozė galioja nuo 25 metu 18 UTC su 26 metu 18 UTC
Vėjas 6 kt iš Rytų
Matomumas: 8000 m
Išsisklaidę debesys ne aukštis 1300 ft
Išsisklaidę debesys ne aukštis 5000 ft
Laikinai
nuo 25 metu 18 UTC su 26 metu 01 UTC
Matomumas: 4000 m
lietus

TAF: VVPB 251700Z 2518/2618 08006KT 8000 SCT013 SCT050 TEMPO 2518/2601 4000 RA

Orai ataskaitas ir orų prognozės (METAR, TAF).

turimą stotys yra geltonos ir raudonos taškus žemėlapyje.

Perkelti pele per norėdami pamatyti stoties vardą.

Tada spustelėkite, norėdami matyti oro stebėjimo ir prognozės.

Norėdami pakeisti žemėlapį: spustelėkite ant žalios mygtukų su juodo kryžiaus žemyn,; žalią mygtuką su brūkšneliu, jei norite nutolinti; arba žalių rodyklių gretimoms žemėlapius.


METAR-TAF: